Time;durP1;ratioP1;P1;durP2;ratioP2;P2;SDS_P1;SDS_P2;PMS_P1;PMS_P2;Temp;Humidity;BMP_temperature;BMP_pressure;BME280_temperature;BME280_humidity;BME280_pressure;Samples;Min_cycle;Max_cycle;Signal;HPM_P1;HPM_P2
2023/07/20 00:02:21;;;;;;;1999.90;999.90;;;18.30;99.90;;;;;;5074347;28;20200;-70
2023/07/20 00:04:46;;;;;;;1999.90;999.90;;;18.20;99.90;;;;;;5074644;28;20264;-69
2023/07/20 00:07:12;;;;;;;1999.90;999.90;;;18.30;99.90;;;;;;5074578;28;20179;-70
2023/07/20 00:09:37;;;;;;;1999.90;999.90;;;18.20;99.90;;;;;;5074831;28;20264;-70
2023/07/20 00:12:03;;;;;;;1999.90;999.90;;;18.20;99.90;;;;;;5074203;28;20218;-70
2023/07/20 00:14:29;;;;;;;1999.90;999.90;;;18.20;99.90;;;;;;5074583;28;20187;-69
2023/07/20 00:16:56;;;;;;;1999.90;999.90;;;18.30;99.90;;;;;;5074595;28;20561;-70
2023/07/20 00:19:28;;;;;;;1999.90;999.90;;;18.20;99.90;;;;;;5074299;28;20311;-71
2023/07/20 00:21:54;;;;;;;1999.90;999.90;;;18.10;99.90;;;;;;5074034;28;20856;-71
2023/07/20 00:24:20;;;;;;;1999.90;999.90;;;18.00;99.90;;;;;;5074398;28;20504;-70
2023/07/20 00:26:46;;;;;;;1999.90;999.90;;;18.00;99.90;;;;;;5074309;28;20762;-70
2023/07/20 00:29:12;;;;;;;1999.90;999.90;;;18.10;99.90;;;;;;5074220;28;20815;-70
2023/07/20 00:31:38;;;;;;;1999.90;999.90;;;18.10;99.90;;;;;;5073887;28;20438;-70
2023/07/20 00:34:04;;;;;;;1999.90;999.90;;;18.10;99.90;;;;;;5074195;28;20302;-69
2023/07/20 00:36:30;;;;;;;1999.90;999.90;;;18.10;99.90;;;;;;5073421;28;20200;-70
2023/07/20 00:38:55;;;;;;;1999.90;999.90;;;18.10;99.90;;;;;;5074011;28;20962;-70
2023/07/20 00:41:21;;;;;;;1999.90;999.90;;;18.00;99.90;;;;;;5073695;28;20198;-70
2023/07/20 00:43:47;;;;;;;1999.90;999.90;;;18.00;99.90;;;;;;5073884;28;20548;-70
2023/07/20 00:46:13;;;;;;;1999.90;999.90;;;18.00;99.90;;;;;;5073904;28;20633;-70
2023/07/20 00:48:40;;;;;;;1999.90;999.90;;;18.00;99.90;;;;;;5073868;28;20173;-70
2023/07/20 00:51:06;;;;;;;1999.90;999.90;;;17.90;99.90;;;;;;5073493;28;20534;-70
2023/07/20 00:53:32;;;;;;;1999.90;999.90;;;17.90;99.90;;;;;;5073781;28;20419;-70
2023/07/20 00:55:57;;;;;;;1999.90;999.90;;;17.90;99.90;;;;;;5073745;28;20249;-70
2023/07/20 00:58:24;;;;;;;1999.90;999.90;;;18.00;99.90;;;;;;5073269;28;20208;-70
2023/07/20 01:00:49;;;;;;;1999.90;999.90;;;18.00;99.90;;;;;;5073426;28;20185;-70
2023/07/20 01:03:15;;;;;;;1999.90;999.90;;;17.90;99.90;;;;;;5073385;28;20882;-70
2023/07/20 01:05:45;;;;;;;1999.90;999.90;;;17.80;99.90;;;;;;5073502;28;20199;-70
2023/07/20 01:08:42;;;;;;;1999.90;999.90;;;17.80;99.90;;;;;;5073526;28;20173;-70
2023/07/20 01:11:26;;;;;;;1999.90;999.90;;;17.80;99.90;;;;;;5072057;28;20529;-70
2023/07/20 01:13:52;;;;;;;1999.90;999.90;;;17.80;99.90;;;;;;5073405;28;20814;-70
2023/07/20 01:16:18;;;;;;;1999.90;999.90;;;17.80;99.90;;;;;;5073321;28;20440;-70
2023/07/20 01:18:43;;;;;;;1999.90;999.90;;;17.90;99.90;;;;;;5073412;28;20259;-70
2023/07/20 01:21:19;;;;;;;1999.90;999.90;;;17.90;99.90;;;;;;5072790;28;20452;-70
2023/07/20 01:24:12;;;;;;;1999.90;999.90;;;17.90;99.90;;;;;;5073097;28;20197;-70
2023/07/20 01:26:45;;;;;;;1999.90;999.90;;;18.00;99.90;;;;;;5073162;28;20401;-70
2023/07/20 01:29:35;;;;;;;1999.90;999.90;;;18.00;99.90;;;;;;5073054;28;20416;-70
2023/07/20 01:32:03;;;;;;;1999.90;999.90;;;18.00;99.90;;;;;;5072670;28;20905;-70
2023/07/20 01:34:30;;;;;;;1999.90;999.90;;;17.90;99.90;;;;;;5072953;28;20498;-69
2023/07/20 01:36:57;;;;;;;1999.90;999.90;;;17.90;99.90;;;;;;5073106;28;20437;-70
2023/07/20 01:39:24;;;;;;;1999.90;999.90;;;17.90;99.90;;;;;;5072909;28;20402;-70
2023/07/20 01:41:49;;;;;;;1999.90;999.90;;;17.90;99.90;;;;;;5072544;28;20439;-70
2023/07/20 01:44:15;;;;;;;1999.90;999.90;;;17.70;99.90;;;;;;5072756;28;20824;-70
2023/07/20 01:46:40;;;;;;;1999.90;999.90;;;17.60;99.90;;;;;;5072727;28;20203;-70
2023/07/20 01:49:06;;;;;;;1999.90;999.90;;;17.50;99.90;;;;;;5072700;28;20662;-70
2023/07/20 01:51:32;;;;;;;1999.90;999.90;;;17.40;99.90;;;;;;5072301;28;20262;-70
2023/07/20 01:53:57;;;;;;;1999.90;999.90;;;17.50;99.90;;;;;;5072624;28;20548;-70
2023/07/20 01:56:23;;;;;;;1999.90;999.90;;;17.40;99.90;;;;;;5072532;28;20166;-70
2023/07/20 01:58:48;;;;;;;1999.90;999.90;;;17.40;99.90;;;;;;5072549;28;20508;-70
2023/07/20 02:01:14;;;;;;;1999.90;999.90;;;17.40;99.90;;;;;;5072036;28;20184;-70
2023/07/20 02:03:39;;;;;;;1999.90;999.90;;;17.40;99.90;;;;;;5072374;28;20224;-70
2023/07/20 02:06:05;;;;;;;1999.90;999.90;;;17.40;99.90;;;;;;5072846;28;20171;-69
2023/07/20 02:08:31;;;;;;;1999.90;999.90;;;17.30;99.90;;;;;;5072333;28;20181;-69
2023/07/20 02:10:56;;;;;;;1999.90;999.90;;;17.00;99.90;;;;;;5071978;28;20213;-69
2023/07/20 02:13:22;;;;;;;1999.90;999.90;;;17.20;99.90;;;;;;5072339;28;20173;-69
2023/07/20 02:15:49;;;;;;;1999.90;999.90;;;17.10;99.90;;;;;;5072261;28;20624;-69
2023/07/20 02:18:14;;;;;;;1999.90;999.90;;;17.00;99.90;;;;;;5072482;28;20700;-69
2023/07/20 02:20:41;;;;;;;1999.90;999.90;;;17.00;99.90;;;;;;5072092;28;20425;-69
2023/07/20 02:23:07;;;;;;;1999.90;999.90;;;17.10;99.90;;;;;;5071218;28;20243;-69
2023/07/20 02:25:32;;;;;;;1999.90;999.90;;;17.00;99.90;;;;;;5072017;28;20443;-69
2023/07/20 02:27:58;;;;;;;1999.90;999.90;;;17.00;99.90;;;;;;5072150;28;20705;-69
2023/07/20 02:30:24;;;;;;;1999.90;999.90;;;17.00;99.90;;;;;;5072012;28;20160;-69
2023/07/20 02:32:49;;;;;;;1999.90;999.90;;;17.00;99.90;;;;;;5071688;28;20460;-69
2023/07/20 02:35:16;;;;;;;1999.90;999.90;;;17.00;99.90;;;;;;5072120;28;20176;-69
2023/07/20 02:37:41;;;;;;;1999.90;999.90;;;17.10;99.90;;;;;;5072009;28;20175;-69
2023/07/20 02:40:08;;;;;;;1999.90;999.90;;;17.10;99.90;;;;;;5071906;28;20430;-69
2023/07/20 02:42:34;;;;;;;1999.90;999.90;;;17.10;99.90;;;;;;5071519;28;20189;-69
2023/07/20 02:45:00;;;;;;;1999.90;999.90;;;17.20;99.90;;;;;;5071730;28;20456;-69
2023/07/20 02:47:26;;;;;;;1999.90;999.90;;;17.30;99.90;;;;;;5071910;28;20242;-69
2023/07/20 02:49:51;;;;;;;1999.90;999.90;;;17.30;99.90;;;;;;5072036;28;20259;-69
2023/07/20 02:52:17;;;;;;;1999.90;999.90;;;17.20;99.90;;;;;;5071513;28;20429;-69
2023/07/20 02:54:42;;;;;;;1999.90;999.90;;;17.30;99.90;;;;;;5071933;28;20704;-69
2023/07/20 02:57:08;;;;;;;1999.90;999.90;;;17.20;99.90;;;;;;5071743;28;20641;-69
2023/07/20 02:59:33;;;;;;;1999.90;999.90;;;17.20;99.90;;;;;;5071752;28;20173;-69
2023/07/20 03:01:59;;;;;;;1999.90;999.90;;;17.20;99.90;;;;;;5071549;28;20214;-69
2023/07/20 03:04:27;;;;;;;1999.90;999.90;;;17.10;99.90;;;;;;5071699;28;20197;-69
2023/07/20 03:06:53;;;;;;;1999.90;999.90;;;17.10;99.90;;;;;;5071809;28;20628;-69
2023/07/20 03:09:19;;;;;;;1999.90;999.90;;;17.10;99.90;;;;;;5071711;28;20424;-69
2023/07/20 03:11:44;;;;;;;1999.90;999.90;;;17.10;99.90;;;;;;5071253;28;20683;-69
2023/07/20 03:14:10;;;;;;;1999.90;999.90;;;17.00;99.90;;;;;;5071572;28;20174;-69
2023/07/20 03:16:36;;;;;;;1999.90;999.90;;;17.00;99.90;;;;;;5071839;28;20281;-69
2023/07/20 03:19:02;;;;;;;1999.90;999.90;;;17.00;99.90;;;;;;5071470;28;20220;-69
2023/07/20 03:21:28;;;;;;;1999.90;999.90;;;17.00;99.90;;;;;;5070222;28;20212;-69
2023/07/20 03:23:54;;;;;;;1999.90;999.90;;;16.90;99.90;;;;;;5071610;28;20409;-69
2023/07/20 03:26:20;;;;;;;1999.90;999.90;;;16.90;99.90;;;;;;5071498;28;20909;-69
2023/07/20 03:28:45;;;;;;;1999.90;999.90;;;16.80;99.90;;;;;;5071447;28;20583;-69
2023/07/20 03:31:11;;;;;;;1999.90;999.90;;;16.80;99.90;;;;;;5071151;28;20193;-69
2023/07/20 03:33:37;;;;;;;1999.90;999.90;;;16.80;99.90;;;;;;5072439;28;20282;-69
2023/07/20 03:36:03;;;;;;;1999.90;999.90;;;16.80;99.90;;;;;;5075230;28;20691;-69
2023/07/20 03:38:28;;;;;;;1999.90;999.90;;;16.80;99.90;;;;;;5075274;28;20174;-69
2023/07/20 03:40:56;;;;;;;1999.90;999.90;;;16.90;99.90;;;;;;5074840;28;20920;-69
2023/07/20 03:43:23;;;;;;;1999.90;999.90;;;16.80;99.90;;;;;;5075109;28;20185;-69
2023/07/20 03:45:49;;;;;;;1999.90;999.90;;;16.90;99.90;;;;;;5075136;28;20475;-69
2023/07/20 03:48:22;;;;;;;1999.90;999.90;;;16.90;99.90;;;;;;5075007;28;20452;-69
2023/07/20 03:50:49;;;;;;;1999.90;999.90;;;16.80;99.90;;;;;;5074832;28;20409;-69
2023/07/20 03:53:16;;;;;;;1999.90;999.90;;;16.80;99.90;;;;;;5074725;28;20412;-69
2023/07/20 03:55:46;;;;;;;1999.90;999.90;;;16.80;99.90;;;;;;5074795;28;20423;-69
2023/07/20 03:58:12;;;;;;;1999.90;999.90;;;16.80;99.90;;;;;;5075075;28;20412;-69
2023/07/20 04:00:38;;;;;;;1999.90;999.90;;;16.80;99.90;;;;;;5074774;28;20462;-69
2023/07/20 04:03:04;;;;;;;1999.90;999.90;;;16.80;99.90;;;;;;5074389;28;20508;-69
2023/07/20 04:05:29;;;;;;;1999.90;999.90;;;16.80;99.90;;;;;;5074655;28;20208;-69
2023/07/20 04:07:55;;;;;;;1999.90;999.90;;;16.80;99.90;;;;;;5074690;28;20262;-69
2023/07/20 04:10:21;;;;;;;1999.90;999.90;;;16.80;99.90;;;;;;5074626;28;20179;-69
2023/07/20 04:12:47;;;;;;;1999.90;999.90;;;16.90;99.90;;;;;;5074472;28;20443;-69
2023/07/20 04:15:13;;;;;;;1999.90;999.90;;;16.90;99.90;;;;;;5074702;28;20172;-69
2023/07/20 04:17:40;;;;;;;1999.90;999.90;;;16.90;99.90;;;;;;5074481;28;20439;-69
2023/07/20 04:20:07;;;;;;;1999.90;999.90;;;16.90;99.90;;;;;;5074440;28;20954;-69
2023/07/20 04:22:32;;;;;;;1999.90;999.90;;;17.00;99.90;;;;;;5073995;28;20436;-69
2023/07/20 04:24:58;;;;;;;1999.90;999.90;;;17.00;99.90;;;;;;5074212;28;20569;-69
2023/07/20 04:27:23;;;;;;;1999.90;999.90;;;17.00;99.90;;;;;;5074399;28;20208;-69
2023/07/20 04:29:49;;;;;;;1999.90;999.90;;;17.10;99.90;;;;;;5074257;28;20236;-69
2023/07/20 04:32:15;;;;;;;1999.90;999.90;;;17.10;99.90;;;;;;5073942;28;20186;-69
2023/07/20 04:34:40;;;;;;;1999.90;999.90;;;17.20;99.90;;;;;;5074175;28;20217;-69
2023/07/20 04:37:06;;;;;;;1999.90;999.90;;;17.20;99.90;;;;;;5074173;28;20545;-69
2023/07/20 04:39:32;;;;;;;1999.90;999.90;;;17.20;99.90;;;;;;5074051;28;20198;-69
2023/07/20 04:41:58;;;;;;;1999.90;999.90;;;17.10;99.90;;;;;;5073677;28;20197;-69
2023/07/20 04:44:24;;;;;;;1999.90;999.90;;;17.20;99.90;;;;;;5074104;28;20288;-69
2023/07/20 04:46:49;;;;;;;1999.90;999.90;;;17.20;99.90;;;;;;5073278;28;20410;-69
2023/07/20 04:49:15;;;;;;;1999.90;999.90;;;17.20;99.90;;;;;;5074011;28;20934;-69
2023/07/20 04:51:41;;;;;;;1999.90;999.90;;;17.10;99.90;;;;;;5073576;28;20753;-69
2023/07/20 04:54:06;;;;;;;1999.90;999.90;;;17.10;99.90;;;;;;5073802;28;20382;-69
2023/07/20 04:56:33;;;;;;;1999.90;999.90;;;17.10;99.90;;;;;;5073723;28;20891;-69
2023/07/20 04:58:58;;;;;;;1999.90;999.90;;;17.20;99.90;;;;;;5073927;28;20258;-69
2023/07/20 05:01:24;;;;;;;1999.90;999.90;;;17.20;99.90;;;;;;5073491;28;21007;-70
2023/07/20 05:03:50;;;;;;;1999.90;999.90;;;17.20;99.90;;;;;;5073544;28;20187;-70
2023/07/20 05:06:15;;;;;;;1999.90;999.90;;;17.20;99.90;;;;;;5073619;28;20251;-70
2023/07/20 05:08:41;;;;;;;1999.90;999.90;;;17.20;99.90;;;;;;5073668;28;20171;-70
2023/07/20 05:11:07;;;;;;;1999.90;999.90;;;17.30;99.90;;;;;;5073148;28;20193;-70
2023/07/20 05:13:33;;;;;;;1999.90;999.90;;;17.30;99.90;;;;;;5073505;28;20178;-70
2023/07/20 05:15:59;;;;;;;1999.90;999.90;;;17.30;99.90;;;;;;5073445;28;20632;-70
2023/07/20 05:18:24;;;;;;;1999.90;999.90;;;17.40;99.90;;;;;;5073364;28;20407;-70
2023/07/20 05:20:51;;;;;;;1999.90;999.90;;;17.40;99.90;;;;;;5073038;28;20648;-70
2023/07/20 05:23:18;;;;;;;1999.90;999.90;;;17.40;99.90;;;;;;5073217;28;20196;-70
2023/07/20 05:25:43;;;;;;;1999.90;999.90;;;17.30;99.90;;;;;;5073097;28;20464;-70
2023/07/20 05:28:09;;;;;;;1999.90;999.90;;;17.30;99.90;;;;;;5073147;28;21073;-70
2023/07/20 05:30:35;;;;;;;1999.90;999.90;;;17.30;99.90;;;;;;5073180;28;20168;-70
2023/07/20 05:33:00;;;;;;;1999.90;999.90;;;17.40;99.90;;;;;;5072665;28;20219;-70
2023/07/20 05:35:26;;;;;;;1999.90;999.90;;;17.30;99.90;;;;;;5072971;28;20174;-70
2023/07/20 05:37:52;;;;;;;1999.90;999.90;;;17.30;99.90;;;;;;5072833;28;20180;-70
2023/07/20 05:40:18;;;;;;;1999.90;999.90;;;17.40;99.90;;;;;;5072997;28;20663;-70
2023/07/20 05:42:46;;;;;;;1999.90;999.90;;;17.50;99.90;;;;;;5072688;28;20194;-70
2023/07/20 05:45:12;;;;;;;1999.90;999.90;;;17.60;99.90;;;;;;5072862;28;20456;-70
2023/07/20 05:47:37;;;;;;;1999.90;999.90;;;17.60;99.90;;;;;;5072733;28;20922;-70
2023/07/20 05:50:03;;;;;;;1999.90;999.90;;;17.60;99.90;;;;;;5072752;28;20164;-70
2023/07/20 05:52:29;;;;;;;1999.90;999.90;;;17.60;99.90;;;;;;5072294;28;20179;-70
2023/07/20 05:54:55;;;;;;;1999.90;999.90;;;17.70;99.90;;;;;;5072628;28;20406;-70
2023/07/20 05:57:20;;;;;;;1999.90;999.90;;;17.70;99.90;;;;;;5072505;28;20236;-70
2023/07/20 05:59:46;;;;;;;1999.90;999.90;;;17.80;99.90;;;;;;5072453;28;20168;-70
2023/07/20 06:02:12;;;;;;;1999.90;999.90;;;17.90;99.90;;;;;;5072159;28;20188;-70
2023/07/20 06:04:39;;;;;;;1999.90;999.90;;;18.00;99.90;;;;;;5072437;28;20623;-70
2023/07/20 06:07:05;;;;;;;1999.90;999.90;;;17.90;99.90;;;;;;5072370;28;20238;-70
2023/07/20 06:09:31;;;;;;;1999.90;999.90;;;17.80;99.90;;;;;;5072605;28;20440;-70
2023/07/20 06:11:56;;;;;;;1999.90;999.90;;;17.70;99.90;;;;;;5071965;28;20187;-70
2023/07/20 06:14:22;;;;;;;1999.90;999.90;;;17.60;99.90;;;;;;5072286;28;20781;-70
2023/07/20 06:16:48;;;;;;;1999.90;999.90;;;17.60;99.90;;;;;;5072365;28;20175;-70
2023/07/20 06:19:13;;;;;;;1999.90;999.90;;;17.60;99.90;;;;;;5072118;28;20163;-70
2023/07/20 06:21:39;;;;;;;1999.90;999.90;;;17.60;99.90;;;;;;5071740;28;20550;-70
2023/07/20 06:24:05;;;;;;;1999.90;999.90;;;17.70;99.90;;;;;;5072121;28;20564;-70
2023/07/20 06:26:37;;;;;;;1999.90;999.90;;;17.80;99.90;;;;;;5072117;28;20248;-70
2023/07/20 06:29:03;;;;;;;1999.90;999.90;;;17.80;99.90;;;;;;5064033;28;20408;-70
2023/07/20 06:31:29;;;;;;;1999.90;999.90;;;17.90;99.90;;;;;;5053874;28;20454;-70
2023/07/20 06:33:54;;;;;;;1999.90;999.90;;;17.90;99.90;;;;;;5051992;28;20168;-70
2023/07/20 06:36:20;;;;;;;1999.90;999.90;;;18.00;99.90;;;;;;5056265;28;20176;-70
2023/07/20 06:38:46;;;;;;;1999.90;999.90;;;18.10;99.90;;;;;;5042129;28;20202;-70
2023/07/20 06:41:11;;;;;;;1999.90;999.90;;;18.20;99.90;;;;;;5061349;28;20445;-70
2023/07/20 06:43:37;;;;;;;1999.90;999.90;;;18.30;99.90;;;;;;5060288;28;20242;-70
2023/07/20 06:46:03;;;;;;;1999.90;999.90;;;18.40;99.90;;;;;;5042451;28;20193;-70
2023/07/20 06:48:29;;;;;;;1999.90;999.90;;;18.50;99.90;;;;;;5064496;28;20933;-70
2023/07/20 06:50:55;;;;;;;1999.90;999.90;;;18.60;99.90;;;;;;5060500;28;20187;-70
2023/07/20 06:53:20;;;;;;;1999.90;999.90;;;18.70;99.90;;;;;;5056746;28;20414;-70
2023/07/20 06:55:46;;;;;;;1999.90;999.90;;;18.80;99.90;;;;;;5056414;28;20176;-70
2023/07/20 06:58:12;;;;;;;1999.90;999.90;;;18.90;99.90;;;;;;5060265;28;20178;-70
2023/07/20 07:00:37;;;;;;;1999.90;999.90;;;19.00;99.90;;;;;;5060615;28;20179;-70
2023/07/20 07:03:03;;;;;;;1999.90;999.90;;;19.10;99.90;;;;;;5054019;28;20215;-70
2023/07/20 07:05:28;;;;;;;1999.90;999.90;;;18.90;99.90;;;;;;5051601;28;20193;-70
2023/07/20 07:07:54;;;;;;;1999.90;999.90;;;19.00;99.90;;;;;;5051705;28;20572;-70
2023/07/20 07:10:19;;;;;;;1999.90;999.90;;;18.90;99.90;;;;;;5055585;28;20171;-70
2023/07/20 07:12:45;;;;;;;1999.90;999.90;;;18.90;99.90;;;;;;5055369;28;20193;-70
2023/07/20 07:15:11;;;;;;;1999.90;999.90;;;18.90;99.90;;;;;;5055668;28;20628;-70
2023/07/20 07:17:36;;;;;;;1999.90;999.90;;;19.10;99.90;;;;;;5055654;28;20225;-70
2023/07/20 07:20:03;;;;;;;1999.90;999.90;;;19.00;99.90;;;;;;5055427;28;20186;-70
2023/07/20 07:22:29;;;;;;;1999.90;999.90;;;18.80;99.90;;;;;;5055202;28;20270;-70
2023/07/20 07:24:55;;;;;;;1999.90;999.90;;;19.00;99.90;;;;;;5055462;28;20542;-70
2023/07/20 07:27:20;;;;;;;1999.90;999.90;;;19.10;99.90;;;;;;5055491;28;20197;-70
2023/07/20 07:29:46;;;;;;;1999.90;999.90;;;19.20;99.90;;;;;;5055490;28;20677;-70
2023/07/20 07:32:12;;;;;;;1999.90;999.90;;;19.40;99.90;;;;;;5057730;28;20221;-70
2023/07/20 07:34:38;;;;;;;1999.90;999.90;;;19.40;99.90;;;;;;5073029;28;20183;-70
2023/07/20 07:37:04;;;;;;;1999.90;999.90;;;19.40;99.90;;;;;;5069044;28;20183;-70
2023/07/20 07:39:30;;;;;;;1999.90;999.90;;;19.20;99.90;;;;;;5072572;28;20783;-70
2023/07/20 07:41:56;;;;;;;1999.90;999.90;;;19.20;99.90;;;;;;5066378;28;20490;-70
2023/07/20 07:44:22;;;;;;;1999.90;999.90;;;19.20;99.90;;;;;;5075029;28;20595;-70
2023/07/20 07:46:48;;;;;;;1999.90;999.90;;;19.40;99.90;;;;;;5075163;28;20563;-70
2023/07/20 07:49:14;;;;;;;1999.90;999.90;;;19.60;99.90;;;;;;5074863;28;20401;-70
2023/07/20 07:51:40;;;;;;;1999.90;999.90;;;19.60;99.90;;;;;;5067677;28;20456;-70
2023/07/20 07:54:06;;;;;;;1999.90;999.90;;;19.60;99.90;;;;;;5074878;28;20406;-70
2023/07/20 07:56:31;;;;;;;1999.90;999.90;;;19.50;99.90;;;;;;5066668;28;20172;-70
2023/07/20 07:58:57;;;;;;;1999.90;999.90;;;19.40;99.90;;;;;;5074870;28;20854;-70
2023/07/20 08:01:22;;;;;;;1999.90;999.90;;;19.70;99.90;;;;;;5074405;28;20668;-70
2023/07/20 08:03:48;;;;;;;1999.90;999.90;;;19.90;99.90;;;;;;5074642;28;20203;-70
2023/07/20 08:06:14;;;;;;;1999.90;999.90;;;20.20;99.90;;;;;;5069107;28;20204;-70
2023/07/20 08:08:40;;;;;;;1999.90;999.90;;;20.40;99.90;;;;;;5066214;28;20177;-70
2023/07/20 08:11:05;;;;;;;1999.90;999.90;;;20.60;99.90;;;;;;5074410;28;20420;-69
2023/07/20 08:13:32;;;;;;;1999.90;999.90;;;20.50;99.90;;;;;;5067218;28;20535;-68
2023/07/20 08:15:58;;;;;;;1999.90;999.90;;;20.40;99.90;;;;;;5065711;28;20910;-67
2023/07/20 08:18:24;;;;;;;1999.90;999.90;;;20.40;99.90;;;;;;5063340;28;20425;-70
2023/07/20 08:20:49;;;;;;;1999.90;999.90;;;20.20;99.90;;;;;;5061895;28;20830;-69
2023/07/20 08:23:15;;;;;;;1999.90;999.90;;;19.70;99.90;;;;;;5060792;28;20184;-71
2023/07/20 08:25:43;;;;;;;1999.90;999.90;;;19.70;99.90;;;;;;5059862;28;20195;-70
2023/07/20 08:28:16;;;;;;;1999.90;999.90;;;19.80;99.90;;;;;;5058646;28;20410;-71
2023/07/20 08:30:45;;;;;;;1999.90;999.90;;;19.80;99.90;;;;;;5057522;28;20466;-72
2023/07/20 08:33:13;;;;;;;1999.90;999.90;;;19.90;99.90;;;;;;5058597;28;20507;-73
2023/07/20 08:35:38;;;;;;;1999.90;999.90;;;19.90;99.90;;;;;;5059986;28;21030;-70
2023/07/20 08:38:04;;;;;;;1999.90;999.90;;;20.20;99.90;;;;;;5057737;28;20441;-69
2023/07/20 08:40:32;;;;;;;1999.90;999.90;;;20.40;99.90;;;;;;5053562;28;20183;-68
2023/07/20 08:43:00;;;;;;;1999.90;999.90;;;20.70;99.90;;;;;;5060441;28;20225;-70
2023/07/20 08:45:28;;;;;;;1999.90;999.90;;;20.60;99.90;;;;;;5061730;28;20453;-69
2023/07/20 08:47:57;;;;;;;1999.90;999.90;;;20.70;99.90;;;;;;5068932;28;20407;-72
2023/07/20 08:50:26;;;;;;;1999.90;999.90;;;20.80;99.90;;;;;;5070118;28;20410;-69
2023/07/20 08:52:52;;;;;;;1999.90;999.90;;;20.90;99.90;;;;;;5068464;28;20469;-70
2023/07/20 08:55:22;;;;;;;1999.90;999.90;;;20.90;99.90;;;;;;5068664;28;20415;-70
2023/07/20 08:57:50;;;;;;;1999.90;999.90;;;20.50;99.90;;;;;;5063804;28;20436;-70
2023/07/20 09:00:18;;;;;;;1999.90;999.90;;;20.30;99.90;;;;;;5065050;28;20467;-70
2023/07/20 09:02:45;;;;;;;1999.90;999.90;;;20.20;99.90;;;;;;5059751;28;20557;-70
2023/07/20 09:05:12;;;;;;;1999.90;999.90;;;20.20;99.90;;;;;;5064283;28;20467;-70
2023/07/20 09:07:42;;;;;;;1999.90;999.90;;;20.40;99.90;;;;;;5058809;28;20410;-70
2023/07/20 09:10:08;;;;;;;1999.90;999.90;;;20.80;99.90;;;;;;5055498;28;20418;-70
2023/07/20 09:12:42;;;;;;;1999.90;999.90;;;21.10;99.90;;;;;;5048414;28;20493;-70
2023/07/20 09:15:09;;;;;;;1999.90;999.90;;;21.40;99.90;;;;;;5049046;28;20492;-70
2023/07/20 09:17:34;;;;;;;1999.90;999.90;;;21.60;99.90;;;;;;5048849;28;20416;-72
2023/07/20 09:20:10;;;;;;;1999.90;999.90;;;21.90;99.90;;;;;;5048463;28;20399;-72
2023/07/20 09:22:39;;;;;;;1999.90;999.90;;;22.30;99.90;;;;;;5048147;28;20206;-70
2023/07/20 09:25:07;;;;;;;1999.90;999.90;;;22.60;99.90;;;;;;5048114;28;20488;-70
2023/07/20 09:27:37;;;;;;;1999.90;999.90;;;22.60;99.90;;;;;;5049200;28;20451;-70
2023/07/20 09:30:04;;;;;;;1999.90;999.90;;;22.40;99.90;;;;;;5048560;28;20957;-69
2023/07/20 09:32:29;;;;;;;1999.90;999.90;;;21.90;99.90;;;;;;5047185;28;21029;-70
2023/07/20 09:34:55;;;;;;;1999.90;999.90;;;21.50;99.90;;;;;;5049203;28;20421;-70
2023/07/20 09:37:24;;;;;;;1999.90;999.90;;;21.30;99.90;;;;;;5048256;28;20641;-70
2023/07/20 09:39:52;;;;;;;1999.90;999.90;;;21.40;99.90;;;;;;5047656;28;20185;-70
2023/07/20 09:42:18;;;;;;;1999.90;999.90;;;21.30;99.90;;;;;;5048566;28;20433;-70
2023/07/20 09:44:44;;;;;;;1999.90;999.90;;;21.30;99.90;;;;;;5048241;28;20455;-70
2023/07/20 09:47:10;;;;;;;1999.90;999.90;;;21.60;99.90;;;;;;5047640;28;20417;-70
2023/07/20 09:49:42;;;;;;;1999.90;999.90;;;21.80;99.90;;;;;;5048756;28;20427;-70
2023/07/20 09:52:12;;;;;;;1999.90;999.90;;;21.90;99.90;;;;;;5048066;28;20435;-70
2023/07/20 09:54:38;;;;;;;1999.90;999.90;;;21.90;99.90;;;;;;5047392;28;20417;-70
2023/07/20 09:57:08;;;;;;;1999.90;999.90;;;22.20;99.90;;;;;;5047922;28;20418;-70
2023/07/20 09:59:34;;;;;;;1999.90;999.90;;;22.30;99.90;;;;;;5048689;28;20430;-70
2023/07/20 10:02:03;;;;;;;1999.90;999.90;;;22.40;99.90;;;;;;5047004;28;20579;-70
2023/07/20 10:04:30;;;;;;;1999.90;999.90;;;22.80;99.90;;;;;;5047475;28;20430;-70
2023/07/20 10:06:58;;;;;;;1999.90;999.90;;;22.90;99.90;;;;;;5048426;28;20905;-70
2023/07/20 10:09:25;;;;;;;1999.90;999.90;;;22.80;99.90;;;;;;5047563;28;20883;-70
2023/07/20 10:11:52;;;;;;;1999.90;999.90;;;22.60;99.90;;;;;;5047197;28;20509;-70
2023/07/20 10:14:20;;;;;;;1999.90;999.90;;;22.50;99.90;;;;;;5047937;28;20451;-70
2023/07/20 10:16:57;;;;;;;1999.90;999.90;;;22.60;99.90;;;;;;5047753;28;20412;-70
2023/07/20 10:19:30;;;;;;;1999.90;999.90;;;22.90;99.90;;;;;;5048003;28;20418;-69
2023/07/20 10:22:17;;;;;;;1999.90;999.90;;;23.30;99.90;;;;;;5047303;28;20822;-70
2023/07/20 10:24:45;;;;;;;1999.90;999.90;;;23.60;98.80;;;;;;5047817;28;20446;-70
2023/07/20 10:27:12;;;;;;;1999.90;999.90;;;23.60;98.00;;;;;;5055492;28;20951;-70
2023/07/20 10:29:40;;;;;;;1999.90;999.90;;;22.90;93.70;;;;;;5058770;28;20521;-70
2023/07/20 10:32:07;;;;;;;1999.90;999.90;;;22.50;95.70;;;;;;5064667;28;20441;-69
2023/07/20 10:34:32;;;;;;;1999.90;999.90;;;22.50;98.60;;;;;;5067913;28;20475;-69
2023/07/20 10:36:59;;;;;;;1999.90;999.90;;;22.70;96.00;;;;;;5065271;28;20389;-69
2023/07/20 10:39:27;;;;;;;1999.90;999.90;;;23.10;91.50;;;;;;5060743;28;20223;-69
2023/07/20 10:42:01;;;;;;;1999.90;999.90;;;23.40;91.30;;;;;;5066032;28;20444;-69
2023/07/20 10:44:27;;;;;;;1999.90;999.90;;;23.60;91.30;;;;;;5058495;28;20451;-69
2023/07/20 10:47:17;;;;;;;1999.90;999.90;;;23.90;87.10;;;;;;5066621;28;20491;-70
2023/07/20 10:50:00;;;;;;;1999.90;999.90;;;24.20;77.40;;;;;;5067238;28;20908;-70
2023/07/20 10:52:26;;;;;;;1999.90;999.90;;;24.00;77.60;;;;;;5067487;28;20421;-70
2023/07/20 10:54:51;;;;;;;1999.90;999.90;;;24.10;68.10;;;;;;5066640;28;20426;-70
2023/07/20 10:57:29;;;;;;;1999.90;999.90;;;24.20;62.40;;;;;;5067103;28;20193;-70
2023/07/20 11:00:11;;;;;;;1999.90;999.90;;;24.60;64.90;;;;;;5066889;28;20738;-71
2023/07/20 11:02:49;;;;;;;1999.90;999.90;;;24.80;57.30;;;;;;5066175;28;20411;-70
2023/07/20 11:05:35;;;;;;;1999.90;999.90;;;24.80;55.00;;;;;;5066725;28;20477;-71
2023/07/20 11:08:09;;;;;;;1999.90;999.90;;;24.80;58.90;;;;;;5067143;28;20416;-70
2023/07/20 11:10:35;;;;;;;1999.90;999.90;;;24.80;59.90;;;;;;5066577;28;20789;-70
2023/07/20 11:13:21;;;;;;;1999.90;999.90;;;24.60;56.00;;;;;;5066603;28;20396;-70
2023/07/20 11:15:48;;;;;;;1999.90;999.90;;;24.60;59.50;;;;;;5066464;28;20281;-70
2023/07/20 11:18:14;;;;;;;1999.90;999.90;;;24.90;54.10;;;;;;5066935;28;20825;-71
2023/07/20 11:20:40;;;;;;;1999.90;999.90;;;25.10;51.20;;;;;;5067496;28;20911;-70
2023/07/20 11:23:06;;;;;;;1999.90;999.90;;;25.40;53.60;;;;;;5066058;28;20427;-70
2023/07/20 11:25:40;;;;;;;1999.90;999.90;;;25.60;42.90;;;;;;5066984;28;20530;-70
2023/07/20 11:28:10;;;;;;;1999.90;999.90;;;25.60;37.80;;;;;;5067366;28;20448;-70
2023/07/20 11:30:38;;;;;;;1999.90;999.90;;;25.40;37.60;;;;;;5067024;28;20651;-70
2023/07/20 11:33:05;;;;;;;1999.90;999.90;;;25.30;40.50;;;;;;5066463;28;20962;-70
2023/07/20 11:35:34;;;;;;;1999.90;999.90;;;25.40;41.70;;;;;;5066763;28;20968;-70
2023/07/20 11:38:00;;;;;;;1999.90;999.90;;;25.70;37.60;;;;;;5066985;28;20413;-71
2023/07/20 11:40:26;;;;;;;1999.90;999.90;;;26.10;35.70;;;;;;5066555;28;20398;-70
2023/07/20 11:42:51;;;;;;;1999.90;999.90;;;26.10;37.90;;;;;;5066266;28;20194;-70
2023/07/20 11:45:18;;;;;;;1999.90;999.90;;;25.50;39.30;;;;;;5067020;28;20222;-70
2023/07/20 11:47:43;;;;;;;1999.90;999.90;;;24.70;43.60;;;;;;5066544;28;20167;-70
2023/07/20 11:50:10;;;;;;;1999.90;999.90;;;24.30;43.00;;;;;;5066792;28;20451;-70
2023/07/20 11:52:36;;;;;;;1999.90;999.90;;;24.10;35.90;;;;;;5066771;28;20241;-73
2023/07/20 11:55:03;;;;;;;1999.90;999.90;;;23.60;37.90;;;;;;5059118;28;20425;-70
2023/07/20 11:57:29;;;;;;;1999.90;999.90;;;23.30;40.00;;;;;;5064345;28;20428;-70
2023/07/20 12:00:02;;;;;;;1999.90;999.90;;;23.60;43.90;;;;;;5061792;28;20413;-69